sensor_id;sensor_type;location;lat;lon;timestamp;pressure;altitude;pressure_sealevel;temperature;humidity
25584;BME280;13463;51.526;9.928;2024-02-21T00:00:43;100541.91;;;8.85;100.00
25584;BME280;13463;51.526;9.928;2024-02-21T00:03:10;100536.31;;;8.71;100.00
25584;BME280;13463;51.526;9.928;2024-02-21T00:05:36;100539.94;;;8.68;100.00
25584;BME280;13463;51.526;9.928;2024-02-21T00:08:03;100528.59;;;8.43;100.00
25584;BME280;13463;51.526;9.928;2024-02-21T00:10:30;100550.22;;;8.30;100.00
25584;BME280;13463;51.526;9.928;2024-02-21T00:12:59;100543.16;;;8.30;100.00
25584;BME280;13463;51.526;9.928;2024-02-21T00:15:28;100531.06;;;8.23;100.00
25584;BME280;13463;51.526;9.928;2024-02-21T00:17:55;100535.72;;;8.17;100.00
25584;BME280;13463;51.526;9.928;2024-02-21T00:20:21;100535.91;;;8.11;100.00
25584;BME280;13463;51.526;9.928;2024-02-21T00:22:48;100533.09;;;8.15;100.00
25584;BME280;13463;51.526;9.928;2024-02-21T00:25:15;100533.78;;;8.22;100.00
25584;BME280;13463;51.526;9.928;2024-02-21T00:27:41;100537.56;;;8.15;100.00
25584;BME280;13463;51.526;9.928;2024-02-21T00:30:08;100533.94;;;8.17;100.00
25584;BME280;13463;51.526;9.928;2024-02-21T00:32:35;100541.00;;;8.17;100.00
25584;BME280;13463;51.526;9.928;2024-02-21T00:35:02;100541.63;;;8.23;100.00
25584;BME280;13463;51.526;9.928;2024-02-21T00:37:29;100538.75;;;8.31;100.00
25584;BME280;13463;51.526;9.928;2024-02-21T00:39:55;100546.03;;;8.23;100.00
25584;BME280;13463;51.526;9.928;2024-02-21T00:42:22;100538.19;;;8.46;100.00
25584;BME280;13463;51.526;9.928;2024-02-21T00:44:48;100534.03;;;8.62;100.00
25584;BME280;13463;51.526;9.928;2024-02-21T00:47:15;100538.19;;;8.46;100.00
25584;BME280;13463;51.526;9.928;2024-02-21T00:49:42;100536.34;;;8.48;100.00
25584;BME280;13463;51.526;9.928;2024-02-21T00:52:08;100529.47;;;8.19;100.00
25584;BME280;13463;51.526;9.928;2024-02-21T00:54:35;100524.56;;;8.08;100.00
25584;BME280;13463;51.526;9.928;2024-02-21T00:57:15;100530.75;;;8.07;100.00
25584;BME280;13463;51.526;9.928;2024-02-21T00:59:42;100518.66;;;8.00;100.00
25584;BME280;13463;51.526;9.928;2024-02-21T01:02:08;100513.28;;;8.03;100.00
25584;BME280;13463;51.526;9.928;2024-02-21T01:04:35;100513.53;;;7.97;100.00
25584;BME280;13463;51.526;9.928;2024-02-21T01:07:03;100506.75;;;7.90;100.00
25584;BME280;13463;51.526;9.928;2024-02-21T01:09:29;100508.34;;;7.94;100.00
25584;BME280;13463;51.526;9.928;2024-02-21T01:11:56;100504.84;;;7.94;100.00
25584;BME280;13463;51.526;9.928;2024-02-21T01:14:22;100508.44;;;7.91;100.00
25584;BME280;13463;51.526;9.928;2024-02-21T01:16:49;100506.41;;;7.99;100.00
25584;BME280;13463;51.526;9.928;2024-02-21T01:19:16;100493.13;;;8.01;100.00
25584;BME280;13463;51.526;9.928;2024-02-21T01:21:43;100491.53;;;7.97;100.00
25584;BME280;13463;51.526;9.928;2024-02-21T01:24:10;100486.88;;;8.03;100.00
25584;BME280;13463;51.526;9.928;2024-02-21T01:26:36;100472.22;;;8.18;100.00
25584;BME280;13463;51.526;9.928;2024-02-21T01:29:03;100480.09;;;8.20;100.00
25584;BME280;13463;51.526;9.928;2024-02-21T01:31:30;100468.88;;;8.15;100.00
25584;BME280;13463;51.526;9.928;2024-02-21T01:33:57;100481.03;;;8.19;100.00
25584;BME280;13463;51.526;9.928;2024-02-21T01:36:24;100475.41;;;8.28;100.00
25584;BME280;13463;51.526;9.928;2024-02-21T01:38:50;100474.22;;;8.36;100.00
25584;BME280;13463;51.526;9.928;2024-02-21T01:41:17;100465.06;;;8.22;100.00
25584;BME280;13463;51.526;9.928;2024-02-21T01:43:44;100471.63;;;8.35;100.00
25584;BME280;13463;51.526;9.928;2024-02-21T01:46:11;100469.66;;;8.40;100.00
25584;BME280;13463;51.526;9.928;2024-02-21T01:48:38;100457.34;;;8.62;100.00
25584;BME280;13463;51.526;9.928;2024-02-21T01:51:05;100456.34;;;8.43;100.00
25584;BME280;13463;51.526;9.928;2024-02-21T01:53:42;100454.44;;;8.46;100.00
25584;BME280;13463;51.526;9.928;2024-02-21T01:56:09;100448.53;;;8.40;100.00
25584;BME280;13463;51.526;9.928;2024-02-21T01:58:37;100437.56;;;8.72;100.00
25584;BME280;13463;51.526;9.928;2024-02-21T02:01:04;100426.28;;;8.45;100.00
25584;BME280;13463;51.526;9.928;2024-02-21T02:03:33;100431.06;;;8.36;100.00
25584;BME280;13463;51.526;9.928;2024-02-21T02:06:00;100439.53;;;8.44;100.00
25584;BME280;13463;51.526;9.928;2024-02-21T02:08:27;100435.50;;;8.57;100.00
25584;BME280;13463;51.526;9.928;2024-02-21T02:10:53;100429.75;;;8.69;100.00
25584;BME280;13463;51.526;9.928;2024-02-21T02:13:20;100443.34;;;8.60;100.00
25584;BME280;13463;51.526;9.928;2024-02-21T02:15:48;100432.69;;;8.61;100.00
25584;BME280;13463;51.526;9.928;2024-02-21T02:18:16;100430.78;;;8.65;100.00
25584;BME280;13463;51.526;9.928;2024-02-21T02:20:44;100426.59;;;8.59;100.00
25584;BME280;13463;51.526;9.928;2024-02-21T02:25:41;100420.94;;;8.68;100.00
25584;BME280;13463;51.526;9.928;2024-02-21T02:28:08;100405.94;;;8.69;100.00
25584;BME280;13463;51.526;9.928;2024-02-21T02:30:36;100401.72;;;8.65;100.00
25584;BME280;13463;51.526;9.928;2024-02-21T02:33:03;100403.47;;;8.43;100.00
25584;BME280;13463;51.526;9.928;2024-02-21T02:35:30;100391.88;;;8.24;100.00
25584;BME280;13463;51.526;9.928;2024-02-21T02:37:58;100392.09;;;8.18;100.00
25584;BME280;13463;51.526;9.928;2024-02-21T02:40:24;100385.81;;;8.22;100.00
25584;BME280;13463;51.526;9.928;2024-02-21T02:42:51;100386.03;;;8.16;100.00
25584;BME280;13463;51.526;9.928;2024-02-21T02:45:22;100384.53;;;8.08;100.00
25584;BME280;13463;51.526;9.928;2024-02-21T02:47:55;100385.41;;;8.09;100.00
25584;BME280;13463;51.526;9.928;2024-02-21T02:50:24;100378.06;;;8.17;100.00
25584;BME280;13463;51.526;9.928;2024-02-21T02:52:51;100370.41;;;8.10;100.00
25584;BME280;13463;51.526;9.928;2024-02-21T02:55:18;100373.66;;;7.94;100.00
25584;BME280;13463;51.526;9.928;2024-02-21T02:57:45;100374.50;;;7.95;100.00
25584;BME280;13463;51.526;9.928;2024-02-21T03:00:12;100364.25;;;7.87;100.00
25584;BME280;13463;51.526;9.928;2024-02-21T03:02:43;100360.09;;;7.80;100.00
25584;BME280;13463;51.526;9.928;2024-02-21T03:05:13;100360.22;;;7.77;100.00
25584;BME280;13463;51.526;9.928;2024-02-21T03:07:42;100369.00;;;7.78;100.00
25584;BME280;13463;51.526;9.928;2024-02-21T03:10:10;100365.50;;;7.77;100.00
25584;BME280;13463;51.526;9.928;2024-02-21T03:12:37;100356.91;;;7.95;100.00
25584;BME280;13463;51.526;9.928;2024-02-21T03:15:05;100346.56;;;7.89;100.00
25584;BME280;13463;51.526;9.928;2024-02-21T03:17:32;100336.06;;;7.88;100.00
25584;BME280;13463;51.526;9.928;2024-02-21T03:20:04;100331.38;;;7.94;100.00
25584;BME280;13463;51.526;9.928;2024-02-21T03:22:32;100338.41;;;7.95;100.00
25584;BME280;13463;51.526;9.928;2024-02-21T03:24:59;100334.94;;;7.93;100.00
25584;BME280;13463;51.526;9.928;2024-02-21T03:27:26;100336.09;;;8.10;100.00
25584;BME280;13463;51.526;9.928;2024-02-21T03:29:53;100344.50;;;8.19;100.00
25584;BME280;13463;51.526;9.928;2024-02-21T03:32:19;100343.19;;;8.07;100.00
25584;BME280;13463;51.526;9.928;2024-02-21T03:34:46;100348.66;;;8.25;100.00
25584;BME280;13463;51.526;9.928;2024-02-21T03:37:12;100345.75;;;8.32;100.00
25584;BME280;13463;51.526;9.928;2024-02-21T03:39:40;100344.78;;;8.35;100.00
25584;BME280;13463;51.526;9.928;2024-02-21T03:42:07;100358.41;;;8.24;100.00
25584;BME280;13463;51.526;9.928;2024-02-21T03:44:34;100356.47;;;8.51;100.00
25584;BME280;13463;51.526;9.928;2024-02-21T03:47:00;100355.66;;;8.49;100.00
25584;BME280;13463;51.526;9.928;2024-02-21T03:49:27;100353.56;;;8.57;100.00
25584;BME280;13463;51.526;9.928;2024-02-21T03:51:54;100353.63;;;8.34;100.00
25584;BME280;13463;51.526;9.928;2024-02-21T03:54:20;100345.03;;;8.29;100.00
25584;BME280;13463;51.526;9.928;2024-02-21T03:56:47;100346.09;;;8.23;100.00
25584;BME280;13463;51.526;9.928;2024-02-21T03:59:15;100344.50;;;8.19;100.00
25584;BME280;13463;51.526;9.928;2024-02-21T04:01:42;100333.19;;;8.16;100.00
25584;BME280;13463;51.526;9.928;2024-02-21T04:04:10;100333.56;;;8.06;100.00
25584;BME280;13463;51.526;9.928;2024-02-21T04:06:36;100328.28;;;8.06;100.00
25584;BME280;13463;51.526;9.928;2024-02-21T04:09:03;100315.28;;;8.00;100.00
25584;BME280;13463;51.526;9.928;2024-02-21T04:11:30;100304.09;;;8.17;100.00
25584;BME280;13463;51.526;9.928;2024-02-21T04:13:56;100308.97;;;8.04;100.00
25584;BME280;13463;51.526;9.928;2024-02-21T04:16:23;100301.06;;;8.04;100.00
25584;BME280;13463;51.526;9.928;2024-02-21T04:18:50;100296.47;;;8.10;100.00
25584;BME280;13463;51.526;9.928;2024-02-21T04:21:17;100287.91;;;8.03;100.00
25584;BME280;13463;51.526;9.928;2024-02-21T04:23:43;100283.06;;;7.92;100.00
25584;BME280;13463;51.526;9.928;2024-02-21T04:26:10;100286.72;;;7.88;100.00
25584;BME280;13463;51.526;9.928;2024-02-21T04:28:36;100285.59;;;7.95;100.00
25584;BME280;13463;51.526;9.928;2024-02-21T04:31:03;100287.97;;;8.01;100.00
25584;BME280;13463;51.526;9.928;2024-02-21T04:33:30;100285.25;;;8.03;100.00
25584;BME280;13463;51.526;9.928;2024-02-21T04:35:57;100277.03;;;8.11;100.00
25584;BME280;13463;51.526;9.928;2024-02-21T04:38:25;100286.00;;;8.06;100.00
25584;BME280;13463;51.526;9.928;2024-02-21T04:40:51;100287.00;;;8.04;100.00
25584;BME280;13463;51.526;9.928;2024-02-21T04:43:18;100287.84;;;8.04;100.00
25584;BME280;13463;51.526;9.928;2024-02-21T04:45:45;100280.22;;;8.19;100.00
25584;BME280;13463;51.526;9.928;2024-02-21T04:48:11;100281.47;;;8.32;100.00
25584;BME280;13463;51.526;9.928;2024-02-21T04:50:38;100278.69;;;8.13;100.00
25584;BME280;13463;51.526;9.928;2024-02-21T04:53:05;100290.50;;;8.04;100.00
25584;BME280;13463;51.526;9.928;2024-02-21T04:55:31;100284.28;;;8.05;100.00
25584;BME280;13463;51.526;9.928;2024-02-21T04:57:58;100285.22;;;8.04;100.00
25584;BME280;13463;51.526;9.928;2024-02-21T05:00:25;100288.75;;;8.27;100.00
25584;BME280;13463;51.526;9.928;2024-02-21T05:02:51;100278.19;;;8.27;100.00
25584;BME280;13463;51.526;9.928;2024-02-21T05:05:18;100280.72;;;8.06;100.00
25584;BME280;13463;51.526;9.928;2024-02-21T05:07:44;100272.91;;;8.03;100.00
25584;BME280;13463;51.526;9.928;2024-02-21T05:10:11;100271.44;;;7.96;100.00
25584;BME280;13463;51.526;9.928;2024-02-21T05:12:38;100270.66;;;7.94;100.00
25584;BME280;13463;51.526;9.928;2024-02-21T05:15:05;100273.41;;;7.91;100.00
25584;BME280;13463;51.526;9.928;2024-02-21T05:17:34;100273.22;;;7.96;100.00
25584;BME280;13463;51.526;9.928;2024-02-21T05:20:00;100274.94;;;8.19;100.00
25584;BME280;13463;51.526;9.928;2024-02-21T05:22:27;100279.13;;;8.46;100.00
25584;BME280;13463;51.526;9.928;2024-02-21T05:24:54;100281.34;;;8.35;100.00
25584;BME280;13463;51.526;9.928;2024-02-21T05:27:20;100301.66;;;8.54;100.00
25584;BME280;13463;51.526;9.928;2024-02-21T05:29:47;100299.59;;;8.41;100.00
25584;BME280;13463;51.526;9.928;2024-02-21T05:32:14;100301.13;;;8.46;100.00
25584;BME280;13463;51.526;9.928;2024-02-21T05:34:41;100305.09;;;8.56;100.00
25584;BME280;13463;51.526;9.928;2024-02-21T05:37:07;100308.69;;;8.55;100.00
25584;BME280;13463;51.526;9.928;2024-02-21T05:39:34;100303.41;;;8.55;100.00
25584;BME280;13463;51.526;9.928;2024-02-21T05:42:00;100303.72;;;8.48;100.00
25584;BME280;13463;51.526;9.928;2024-02-21T05:44:27;100316.16;;;8.46;100.00
25584;BME280;13463;51.526;9.928;2024-02-21T05:46:54;100307.03;;;8.53;100.00
25584;BME280;13463;51.526;9.928;2024-02-21T05:49:20;100312.50;;;8.48;100.00
25584;BME280;13463;51.526;9.928;2024-02-21T05:51:47;100327.13;;;8.57;100.00
25584;BME280;13463;51.526;9.928;2024-02-21T05:54:14;100325.78;;;8.47;100.00
25584;BME280;13463;51.526;9.928;2024-02-21T05:56:46;100327.91;;;8.59;100.00
25584;BME280;13463;51.526;9.928;2024-02-21T05:59:13;100319.47;;;8.71;100.00
25584;BME280;13463;51.526;9.928;2024-02-21T06:01:40;100317.34;;;8.59;100.00
25584;BME280;13463;51.526;9.928;2024-02-21T06:04:06;100319.69;;;8.45;100.00
25584;BME280;13463;51.526;9.928;2024-02-21T06:06:33;100321.78;;;8.37;100.00
25584;BME280;13463;51.526;9.928;2024-02-21T06:09:00;100311.81;;;8.22;100.00
25584;BME280;13463;51.526;9.928;2024-02-21T06:11:28;100310.19;;;8.18;100.00
25584;BME280;13463;51.526;9.928;2024-02-21T06:13:56;100307.13;;;8.06;100.00
25584;BME280;13463;51.526;9.928;2024-02-21T06:16:23;100293.00;;;8.07;100.00
25584;BME280;13463;51.526;9.928;2024-02-21T06:18:49;100292.88;;;8.11;100.00
25584;BME280;13463;51.526;9.928;2024-02-21T06:21:16;100291.19;;;8.10;100.00
25584;BME280;13463;51.526;9.928;2024-02-21T06:23:43;100278.16;;;8.05;100.00
25584;BME280;13463;51.526;9.928;2024-02-21T06:26:10;100276.34;;;8.05;100.00
25584;BME280;13463;51.526;9.928;2024-02-21T06:28:36;100275.31;;;8.10;100.00
25584;BME280;13463;51.526;9.928;2024-02-21T06:31:06;100275.44;;;8.06;100.00
25584;BME280;13463;51.526;9.928;2024-02-21T06:33:46;100269.09;;;8.11;100.00
25584;BME280;13463;51.526;9.928;2024-02-21T06:36:13;100277.91;;;8.11;100.00
25584;BME280;13463;51.526;9.928;2024-02-21T06:38:39;100279.56;;;8.14;100.00
25584;BME280;13463;51.526;9.928;2024-02-21T06:41:14;100264.38;;;8.19;100.00
25584;BME280;13463;51.526;9.928;2024-02-21T06:43:41;100249.03;;;8.28;100.00
25584;BME280;13463;51.526;9.928;2024-02-21T06:46:07;100242.44;;;8.17;100.00
25584;BME280;13463;51.526;9.928;2024-02-21T06:48:34;100233.53;;;8.19;100.00
25584;BME280;13463;51.526;9.928;2024-02-21T06:51:01;100237.97;;;8.19;100.00
25584;BME280;13463;51.526;9.928;2024-02-21T06:53:27;100240.69;;;8.39;100.00
25584;BME280;13463;51.526;9.928;2024-02-21T06:55:54;100234.84;;;8.31;100.00
25584;BME280;13463;51.526;9.928;2024-02-21T06:58:20;100236.31;;;8.38;100.00
25584;BME280;13463;51.526;9.928;2024-02-21T07:00:47;100238.66;;;8.44;100.00
25584;BME280;13463;51.526;9.928;2024-02-21T07:03:13;100239.84;;;8.37;100.00
25584;BME280;13463;51.526;9.928;2024-02-21T07:05:40;100239.00;;;8.56;100.00
25584;BME280;13463;51.526;9.928;2024-02-21T07:08:07;100237.91;;;8.62;100.00
25584;BME280;13463;51.526;9.928;2024-02-21T07:10:33;100242.41;;;8.60;100.00
25584;BME280;13463;51.526;9.928;2024-02-21T07:13:00;100243.72;;;8.70;100.00
25584;BME280;13463;51.526;9.928;2024-02-21T07:15:27;100235.63;;;8.93;100.00
25584;BME280;13463;51.526;9.928;2024-02-21T07:17:54;100232.63;;;8.62;100.00
25584;BME280;13463;51.526;9.928;2024-02-21T07:20:21;100240.16;;;8.51;100.00
25584;BME280;13463;51.526;9.928;2024-02-21T07:22:48;100234.47;;;8.60;100.00
25584;BME280;13463;51.526;9.928;2024-02-21T07:25:14;100229.84;;;8.65;100.00
25584;BME280;13463;51.526;9.928;2024-02-21T07:27:43;100225.69;;;8.80;100.00
25584;BME280;13463;51.526;9.928;2024-02-21T07:30:09;100211.84;;;8.93;100.00
25584;BME280;13463;51.526;9.928;2024-02-21T07:32:38;100209.19;;;8.73;100.00
25584;BME280;13463;51.526;9.928;2024-02-21T07:35:05;100212.63;;;8.75;100.00
25584;BME280;13463;51.526;9.928;2024-02-21T07:37:37;100215.31;;;8.55;100.00
25584;BME280;13463;51.526;9.928;2024-02-21T07:40:05;100217.00;;;8.56;100.00
25584;BME280;13463;51.526;9.928;2024-02-21T07:42:32;100214.56;;;8.51;100.00
25584;BME280;13463;51.526;9.928;2024-02-21T07:44:59;100214.19;;;8.60;100.00
25584;BME280;13463;51.526;9.928;2024-02-21T07:47:25;100212.63;;;8.75;100.00
25584;BME280;13463;51.526;9.928;2024-02-21T07:49:52;100211.19;;;8.68;100.00
25584;BME280;13463;51.526;9.928;2024-02-21T07:52:19;100215.84;;;9.02;100.00
25584;BME280;13463;51.526;9.928;2024-02-21T07:54:45;100210.63;;;8.80;100.00
25584;BME280;13463;51.526;9.928;2024-02-21T07:57:12;100211.19;;;8.68;100.00
25584;BME280;13463;51.526;9.928;2024-02-21T07:59:39;100208.03;;;8.60;100.00
25584;BME280;13463;51.526;9.928;2024-02-21T08:02:05;100202.00;;;8.56;100.00
25584;BME280;13463;51.526;9.928;2024-02-21T08:04:33;100208.81;;;8.42;100.00
25584;BME280;13463;51.526;9.928;2024-02-21T08:07:00;100219.53;;;8.39;100.00
25584;BME280;13463;51.526;9.928;2024-02-21T08:09:30;100215.41;;;8.52;100.00
25584;BME280;13463;51.526;9.928;2024-02-21T08:11:57;100221.84;;;8.66;100.00
25584;BME280;13463;51.526;9.928;2024-02-21T08:14:23;100215.03;;;8.81;100.00
25584;BME280;13463;51.526;9.928;2024-02-21T08:16:51;100212.78;;;8.72;100.00
25584;BME280;13463;51.526;9.928;2024-02-21T08:19:20;100210.72;;;8.79;100.00
25584;BME280;13463;51.526;9.928;2024-02-21T08:21:46;100213.16;;;8.83;100.00
25584;BME280;13463;51.526;9.928;2024-02-21T08:24:14;100208.63;;;8.66;100.00
25584;BME280;13463;51.526;9.928;2024-02-21T08:26:42;100209.84;;;8.78;100.00
25584;BME280;13463;51.526;9.928;2024-02-21T08:29:09;100211.84;;;8.73;100.00
25584;BME280;13463;51.526;9.928;2024-02-21T08:31:35;100202.06;;;8.75;100.00
25584;BME280;13463;51.526;9.928;2024-02-21T08:34:02;100201.81;;;9.00;100.00
25584;BME280;13463;51.526;9.928;2024-02-21T08:36:34;100188.56;;;9.20;100.00
25584;BME280;13463;51.526;9.928;2024-02-21T08:39:02;100201.41;;;9.09;100.00
25584;BME280;13463;51.526;9.928;2024-02-21T08:41:32;100194.84;;;9.17;100.00
25584;BME280;13463;51.526;9.928;2024-02-21T08:44:19;100184.69;;;9.64;99.34
25584;BME280;13463;51.526;9.928;2024-02-21T08:46:45;100185.66;;;9.80;97.57
25584;BME280;13463;51.526;9.928;2024-02-21T08:49:13;100172.31;;;9.82;95.39
25584;BME280;13463;51.526;9.928;2024-02-21T08:51:40;100176.84;;;9.80;95.65
25584;BME280;13463;51.526;9.928;2024-02-21T08:54:07;100173.31;;;9.98;94.96
25584;BME280;13463;51.526;9.928;2024-02-21T08:56:34;100171.34;;;10.01;92.90
25584;BME280;13463;51.526;9.928;2024-02-21T08:59:02;100164.25;;;10.02;93.12
25584;BME280;13463;51.526;9.928;2024-02-21T09:01:28;100164.72;;;9.93;94.22
25584;BME280;13463;51.526;9.928;2024-02-21T09:03:55;100159.94;;;10.18;93.42
25584;BME280;13463;51.526;9.928;2024-02-21T09:06:23;100158.63;;;10.08;92.44
25584;BME280;13463;51.526;9.928;2024-02-21T09:08:49;100163.44;;;10.19;92.19
25584;BME280;13463;51.526;9.928;2024-02-21T09:11:16;100163.31;;;10.03;93.93
25584;BME280;13463;51.526;9.928;2024-02-21T09:13:45;100165.63;;;10.28;93.11
25584;BME280;13463;51.526;9.928;2024-02-21T09:16:11;100152.41;;;10.09;92.17
25584;BME280;13463;51.526;9.928;2024-02-21T09:18:38;100137.81;;;10.36;91.51
25584;BME280;13463;51.526;9.928;2024-02-21T09:21:04;100143.94;;;10.37;90.72
25584;BME280;13463;51.526;9.928;2024-02-21T09:23:31;100142.91;;;10.39;89.81
25584;BME280;13463;51.526;9.928;2024-02-21T09:25:58;100136.69;;;10.23;91.16
25584;BME280;13463;51.526;9.928;2024-02-21T09:28:27;100141.19;;;10.04;92.86
25584;BME280;13463;51.526;9.928;2024-02-21T09:30:54;100132.16;;;10.25;90.90
25584;BME280;13463;51.526;9.928;2024-02-21T09:33:20;100133.03;;;10.43;88.51
25584;BME280;13463;51.526;9.928;2024-02-21T09:35:58;100129.28;;;10.30;86.47
25584;BME280;13463;51.526;9.928;2024-02-21T09:38:25;100129.13;;;10.33;86.05
25584;BME280;13463;51.526;9.928;2024-02-21T09:41:11;100122.56;;;10.57;85.48
25584;BME280;13463;51.526;9.928;2024-02-21T09:43:41;100127.47;;;10.47;86.77
25584;BME280;13463;51.526;9.928;2024-02-21T09:51:37;100109.81;;;10.63;84.53
25584;BME280;13463;51.526;9.928;2024-02-21T09:54:07;100111.09;;;10.39;85.66
25584;BME280;13463;51.526;9.928;2024-02-21T09:56:44;100114.56;;;10.74;81.71
25584;BME280;13463;51.526;9.928;2024-02-21T09:59:11;100110.13;;;10.75;82.70
25584;BME280;13463;51.526;9.928;2024-02-21T10:01:38;100106.13;;;10.99;81.96
25584;BME280;13463;51.526;9.928;2024-02-21T10:04:05;100107.50;;;10.57;84.93
25584;BME280;13463;51.526;9.928;2024-02-21T10:06:32;100110.22;;;10.89;84.03
25584;BME280;13463;51.526;9.928;2024-02-21T10:08:59;100106.06;;;10.67;83.81
25584;BME280;13463;51.526;9.928;2024-02-21T10:11:26;100103.19;;;10.72;82.69
25584;BME280;13463;51.526;9.928;2024-02-21T10:14:06;100110.94;;;10.42;83.51
25584;BME280;13463;51.526;9.928;2024-02-21T10:16:34;100117.66;;;10.49;84.68
25584;BME280;13463;51.526;9.928;2024-02-21T10:19:01;100114.97;;;10.66;83.71
25584;BME280;13463;51.526;9.928;2024-02-21T10:21:30;100115.31;;;10.60;84.04
25584;BME280;13463;51.526;9.928;2024-02-21T10:23:56;100109.50;;;10.69;82.32
25584;BME280;13463;51.526;9.928;2024-02-21T10:26:23;100115.56;;;10.71;82.98
25584;BME280;13463;51.526;9.928;2024-02-21T10:28:50;100114.94;;;10.51;84.86
25584;BME280;13463;51.526;9.928;2024-02-21T10:31:26;100099.50;;;10.25;88.34
25584;BME280;13463;51.526;9.928;2024-02-21T10:33:58;100086.34;;;10.56;87.15
25584;BME280;13463;51.526;9.928;2024-02-21T10:36:25;100096.28;;;10.52;87.08
25584;BME280;13463;51.526;9.928;2024-02-21T10:38:53;100085.94;;;10.31;87.92
25584;BME280;13463;51.526;9.928;2024-02-21T10:41:21;100071.53;;;10.85;86.06
25584;BME280;13463;51.526;9.928;2024-02-21T10:43:50;100070.84;;;11.12;84.59
25584;BME280;13463;51.526;9.928;2024-02-21T10:46:22;100057.81;;;11.39;82.55
25584;BME280;13463;51.526;9.928;2024-02-21T10:49:03;100049.09;;;10.90;83.25
25584;BME280;13463;51.526;9.928;2024-02-21T10:51:33;100050.81;;;10.91;84.71
25584;BME280;13463;51.526;9.928;2024-02-21T10:54:13;100052.16;;;10.83;84.99
25584;BME280;13463;51.526;9.928;2024-02-21T10:56:44;100045.84;;;10.85;86.09
25584;BME280;13463;51.526;9.928;2024-02-21T10:59:13;100046.47;;;11.06;83.91
25584;BME280;13463;51.526;9.928;2024-02-21T11:01:40;100041.91;;;11.08;83.96
25584;BME280;13463;51.526;9.928;2024-02-21T11:04:10;100034.63;;;11.27;82.71
25584;BME280;13463;51.526;9.928;2024-02-21T11:06:40;100040.16;;;11.54;83.04
25584;BME280;13463;51.526;9.928;2024-02-21T11:09:11;100029.03;;;11.47;80.74
25584;BME280;13463;51.526;9.928;2024-02-21T11:11:39;100025.47;;;11.17;82.52
25584;BME280;13463;51.526;9.928;2024-02-21T11:14:09;100017.09;;;11.09;81.58
25584;BME280;13463;51.526;9.928;2024-02-21T11:16:40;100020.47;;;11.26;81.08
25584;BME280;13463;51.526;9.928;2024-02-21T11:19:28;100018.91;;;11.38;80.88
25584;BME280;13463;51.526;9.928;2024-02-21T11:21:56;100009.47;;;11.03;82.00
25584;BME280;13463;51.526;9.928;2024-02-21T11:24:33;99996.25;;;11.17;81.36
25584;BME280;13463;51.526;9.928;2024-02-21T11:27:20;99992.56;;;11.35;81.79
25584;BME280;13463;51.526;9.928;2024-02-21T11:29:55;99985.94;;;11.42;79.08
25584;BME280;13463;51.526;9.928;2024-02-21T11:32:22;99966.59;;;11.40;79.92
25584;BME280;13463;51.526;9.928;2024-02-21T11:37:35;99958.09;;;11.49;80.58
25584;BME280;13463;51.526;9.928;2024-02-21T11:40:04;99955.13;;;11.69;79.11
25584;BME280;13463;51.526;9.928;2024-02-21T11:42:33;99943.28;;;11.89;76.14
25584;BME280;13463;51.526;9.928;2024-02-21T11:45:00;99949.72;;;11.71;76.20
25584;BME280;13463;51.526;9.928;2024-02-21T11:47:28;99940.06;;;11.54;77.90
25584;BME280;13463;51.526;9.928;2024-02-21T11:49:55;99933.50;;;11.75;76.58
25584;BME280;13463;51.526;9.928;2024-02-21T11:52:24;99937.78;;;11.62;77.48
25584;BME280;13463;51.526;9.928;2024-02-21T11:54:55;99923.34;;;11.82;74.98
25584;BME280;13463;51.526;9.928;2024-02-21T11:57:24;99920.63;;;11.83;75.00
25584;BME280;13463;51.526;9.928;2024-02-21T11:59:52;99915.88;;;11.88;73.57
25584;BME280;13463;51.526;9.928;2024-02-21T12:02:26;99913.88;;;11.92;74.66
25584;BME280;13463;51.526;9.928;2024-02-21T12:04:53;99920.16;;;11.61;74.23
25584;BME280;13463;51.526;9.928;2024-02-21T12:07:21;99911.34;;;11.31;75.61
25584;BME280;13463;51.526;9.928;2024-02-21T12:09:51;99903.94;;;11.66;75.87
25584;BME280;13463;51.526;9.928;2024-02-21T12:12:20;99903.69;;;12.13;74.52
25584;BME280;13463;51.526;9.928;2024-02-21T12:14:55;99894.88;;;12.12;73.11
25584;BME280;13463;51.526;9.928;2024-02-21T12:17:22;99891.47;;;11.82;74.85
25584;BME280;13463;51.526;9.928;2024-02-21T12:19:49;99889.69;;;11.53;77.05
25584;BME280;13463;51.526;9.928;2024-02-21T12:22:19;99875.53;;;11.38;78.54
25584;BME280;13463;51.526;9.928;2024-02-21T12:24:46;99874.78;;;11.36;78.77
25584;BME280;13463;51.526;9.928;2024-02-21T12:27:14;99881.16;;;11.04;80.08
25584;BME280;13463;51.526;9.928;2024-02-21T12:29:41;99873.44;;;11.43;79.66
25584;BME280;13463;51.526;9.928;2024-02-21T12:32:07;99859.34;;;11.43;80.94
25584;BME280;13463;51.526;9.928;2024-02-21T12:34:34;99860.38;;;11.40;80.58
25584;BME280;13463;51.526;9.928;2024-02-21T12:37:18;99865.94;;;11.35;81.82
25584;BME280;13463;51.526;9.928;2024-02-21T12:39:46;99857.69;;;11.26;82.74
25584;BME280;13463;51.526;9.928;2024-02-21T12:42:13;99868.19;;;10.84;86.44
25584;BME280;13463;51.526;9.928;2024-02-21T12:44:40;99870.44;;;11.05;87.37
25584;BME280;13463;51.526;9.928;2024-02-21T12:47:07;99853.06;;;11.44;82.93
25584;BME280;13463;51.526;9.928;2024-02-21T12:49:34;99847.16;;;11.24;82.39
25584;BME280;13463;51.526;9.928;2024-02-21T12:52:01;99845.75;;;11.33;82.72
25584;BME280;13463;51.526;9.928;2024-02-21T12:54:30;99845.25;;;11.26;82.38
25584;BME280;13463;51.526;9.928;2024-02-21T12:56:57;99849.88;;;11.09;83.80
25584;BME280;13463;51.526;9.928;2024-02-21T12:59:24;99849.53;;;11.29;83.97
25584;BME280;13463;51.526;9.928;2024-02-21T13:01:52;99857.06;;;10.77;88.20
25584;BME280;13463;51.526;9.928;2024-02-21T13:04:19;99851.56;;;10.80;84.89
25584;BME280;13463;51.526;9.928;2024-02-21T13:06:48;99850.59;;;10.51;88.33